Time;durP1;ratioP1;P1;durP2;ratioP2;P2;SDS_P1;SDS_P2;PMS_P1;PMS_P2;Temp;Humidity;BMP_temperature;BMP_pressure;BME280_temperature;BME280_humidity;BME280_pressure;Samples;Min_cycle;Max_cycle;Signal;HPM_P1;HPM_P2
2022/11/01 00:00:03;;;;;;;;;6.50;5.75;;;;;22.50;52.48;100632.25;5023789;28;45406;-56
2022/11/01 00:02:29;;;;;;;;;8.25;6.25;;;;;22.51;52.81;100638.34;5022552;28;45430;-54
2022/11/01 00:04:54;;;;;;;;;6.50;6.50;;;;;22.50;52.65;100640.16;5024591;28;53891;-55
2022/11/01 00:07:20;;;;;;;;;5.00;5.00;;;;;22.50;52.71;100653.38;5022775;28;45209;-56
2022/11/01 00:09:45;;;;;;;;;7.00;6.50;;;;;22.49;52.32;100656.97;5019309;28;45507;-56
2022/11/01 00:12:10;;;;;;;;;6.50;5.00;;;;;22.50;52.39;100663.06;5018105;28;46227;-56
2022/11/01 00:14:36;;;;;;;;;7.50;6.50;;;;;22.49;52.43;100670.16;5017949;28;45703;-57
2022/11/01 00:17:02;;;;;;;;;5.50;5.50;;;;;22.47;52.49;100664.13;5018898;28;45331;-57
2022/11/01 00:19:27;;;;;;;;;6.00;5.00;;;;;22.48;52.36;100681.66;5018606;28;45605;-56
2022/11/01 00:21:52;;;;;;;;;5.50;5.00;;;;;22.49;52.40;100678.09;5017948;28;55753;-54
2022/11/01 00:24:17;;;;;;;;;5.00;5.00;;;;;22.49;52.15;100675.44;5021305;28;46075;-55
2022/11/01 00:26:43;;;;;;;;;7.50;6.00;;;;;22.48;52.35;100680.84;5018303;28;45336;-56
2022/11/01 00:29:09;;;;;;;;;6.25;4.50;;;;;22.49;52.48;100685.19;5019666;28;45615;-57
2022/11/01 00:31:35;;;;;;;;;3.50;3.50;;;;;22.49;52.25;100699.22;5018845;28;46120;-56
2022/11/01 00:34:02;;;;;;;;;5.00;5.00;;;;;22.48;52.12;100686.94;5020237;28;45299;-55
2022/11/01 00:36:28;;;;;;;;;5.00;5.00;;;;;22.48;52.19;100701.97;5040026;28;45277;-55
2022/11/01 00:38:53;;;;;;;;;4.25;4.00;;;;;22.48;52.22;100708.06;5037981;28;44784;-56
2022/11/01 00:41:22;;;;;;;;;5.00;4.50;;;;;22.47;52.17;100706.38;5030024;28;46077;-55
2022/11/01 00:43:48;;;;;;;;;5.00;4.00;;;;;22.47;51.96;100710.84;5021241;28;45578;-55
2022/11/01 00:46:13;;;;;;;;;7.25;5.00;;;;;22.46;52.25;100720.53;5018116;28;45406;-55
2022/11/01 00:48:39;;;;;;;;;4.00;4.00;;;;;22.47;52.11;100727.50;5019083;28;45577;-57
2022/11/01 00:51:04;;;;;;;;;4.75;4.00;;;;;22.47;52.01;100746.00;5018232;28;45929;-54
2022/11/01 00:53:29;;;;;;;;;5.00;4.00;;;;;22.46;52.14;100731.09;5018219;28;45378;-56
2022/11/01 00:56:03;;;;;;;;;6.00;4.00;;;;;22.46;51.85;100746.94;5017717;28;45273;-56
2022/11/01 00:58:28;;;;;;;;;4.50;4.50;;;;;22.45;51.71;100749.69;5017818;28;45367;-56
2022/11/01 01:00:54;;;;;;;;;4.00;4.00;;;;;22.45;51.79;100755.81;5018255;28;45430;-57
2022/11/01 01:03:19;;;;;;;;;5.25;4.75;;;;;22.45;51.95;100758.44;5017722;28;45441;-55
2022/11/01 01:05:48;;;;;;;;;3.00;3.00;;;;;22.42;51.97;100761.31;5017847;28;45308;-54
2022/11/01 01:08:13;;;;;;;;;4.75;4.25;;;;;22.45;51.54;100778.75;5018030;28;45328;-56
2022/11/01 01:10:38;;;;;;;;;3.00;3.00;;;;;22.44;51.85;100787.59;5019259;28;46275;-54
2022/11/01 01:13:04;;;;;;;;;4.00;4.00;;;;;22.41;51.64;100778.09;5024769;28;45229;-56
2022/11/01 01:15:29;;;;;;;;;4.50;3.00;;;;;22.44;51.50;100785.81;5024520;28;45233;-56
2022/11/01 01:17:55;;;;;;;;;3.00;3.00;;;;;22.44;51.64;100806.09;5028015;28;45505;-56
2022/11/01 01:20:20;;;;;;;;;2.50;2.50;;;;;22.43;51.54;100793.84;5028494;28;47279;-55
2022/11/01 01:22:46;;;;;;;;;3.00;2.00;;;;;22.42;51.54;100800.94;5022653;28;45354;-55
2022/11/01 01:25:12;;;;;;;;;3.75;3.00;;;;;22.42;51.27;100805.34;5018027;28;45307;-57
2022/11/01 01:27:37;;;;;;;;;3.00;3.00;;;;;22.42;51.40;100807.97;5017158;28;45252;-56
2022/11/01 01:30:05;;;;;;;;;3.00;3.00;;;;;22.41;51.66;100807.16;5016069;28;49489;-54
2022/11/01 01:32:31;;;;;;;;;5.50;3.00;;;;;22.39;51.20;100812.47;5017702;28;45717;-55
2022/11/01 01:34:56;;;;;;;;;2.25;2.25;;;;;22.42;51.23;100824.69;5017588;28;45808;-56
2022/11/01 01:37:21;;;;;;;;;3.00;3.00;;;;;22.39;51.08;100824.84;5017171;28;45510;-56
2022/11/01 01:39:47;;;;;;;;;2.00;2.00;;;;;22.38;51.19;100820.50;5017369;28;45402;-57
2022/11/01 01:42:28;;;;;;;;;4.00;3.25;;;;;22.42;51.21;100834.38;5017243;28;45411;-55
2022/11/01 01:44:54;;;;;;;;;3.00;3.00;;;;;22.41;51.20;100848.53;5017139;28;45411;-55
2022/11/01 01:47:25;;;;;;;;;4.50;2.00;;;;;22.39;50.95;100849.44;5018147;28;45414;-56
2022/11/01 01:49:58;;;;;;;;;2.50;2.50;;;;;22.40;51.15;100858.22;5017760;28;46800;-54
2022/11/01 01:52:26;;;;;;;;;1.75;1.75;;;;;22.38;51.03;100849.56;5020378;28;45345;-56
2022/11/01 01:54:51;;;;;;;;;2.00;2.00;;;;;22.38;50.99;100853.03;5024046;28;45227;-56
2022/11/01 01:57:17;;;;;;;;;2.00;2.00;;;;;22.38;50.91;100853.03;5022517;28;45277;-56
2022/11/01 01:59:44;;;;;;;;;2.75;2.00;;;;;22.39;50.73;100867.09;5018554;28;46357;-56
2022/11/01 02:02:10;;;;;;;;;3.75;3.00;;;;;22.38;50.77;100868.88;5017675;28;45667;-55
2022/11/01 02:04:58;;;;;;;;;3.25;2.00;;;;;22.37;51.09;100885.69;5017501;28;45383;-55
2022/11/01 02:07:24;;;;;;;;;3.00;2.00;;;;;22.37;50.86;100869.84;5017716;28;45344;-55
2022/11/01 02:09:50;;;;;;;;;2.25;2.25;;;;;22.36;50.88;100878.72;5023480;28;46073;-53
2022/11/01 02:12:16;;;;;;;;;2.00;2.00;;;;;22.35;50.75;100887.56;5024865;28;45321;-56
2022/11/01 02:14:43;;;;;;;;;3.00;3.00;;;;;22.37;50.69;100890.09;5017278;28;50355;-54
2022/11/01 02:17:24;;;;;;;;;2.00;2.00;;;;;22.37;50.88;100895.38;5017814;28;45433;-56
2022/11/01 02:20:08;;;;;;;;;2.00;2.00;;;;;22.36;50.66;100896.31;5017424;28;45351;-55
2022/11/01 02:22:42;;;;;;;;;2.00;2.00;;;;;22.36;50.79;100901.59;5020750;28;45327;-56
2022/11/01 02:25:22;;;;;;;;;2.00;2.00;;;;;22.37;50.44;100909.44;5020291;28;45903;-55
2022/11/01 02:28:26;;;;;;;;;1.00;1.00;;;;;22.35;50.51;100911.34;5021493;28;45276;-56
2022/11/01 02:31:27;;;;;;;;;0.25;0.00;;;;;22.33;50.38;100904.44;5028707;28;45305;-56
2022/11/01 02:34:00;;;;;;;;;2.75;1.25;;;;;22.32;50.43;100906.25;5037815;28;45283;-54
2022/11/01 02:36:28;;;;;;;;;2.25;2.00;;;;;22.33;50.23;100915.84;5028393;28;45249;-54
2022/11/01 02:39:00;;;;;;;;;2.00;2.00;;;;;22.34;50.39;100916.69;5024194;28;45462;-55
2022/11/01 02:41:40;;;;;;;;;1.25;1.25;;;;;22.33;50.38;100918.50;5022198;28;45325;-54
2022/11/01 02:44:15;;;;;;;;;1.25;1.25;;;;;22.33;49.96;100915.00;5020884;28;45766;-54
2022/11/01 02:47:02;;;;;;;;;1.00;1.00;;;;;22.32;50.19;100916.78;5025457;28;45376;-55
2022/11/01 02:49:30;;;;;;;;;2.00;2.00;;;;;22.32;50.10;100916.78;5027599;28;45241;-56
2022/11/01 02:51:57;;;;;;;;;2.75;2.75;;;;;22.32;50.29;100921.25;5026310;28;46323;-56
2022/11/01 02:54:26;;;;;;;;;2.50;1.75;;;;;22.32;50.18;100919.44;5023893;28;45371;-56
2022/11/01 02:56:52;;;;;;;;;1.00;1.00;;;;;22.32;50.22;100923.88;5019410;28;45292;-56
2022/11/01 02:59:23;;;;;;;;;3.00;2.00;;;;;22.29;49.93;100922.25;5019752;28;45346;-56
2022/11/01 03:01:56;;;;;;;;;1.25;1.25;;;;;22.29;49.99;100931.97;5019738;28;47141;-56
2022/11/01 03:04:22;;;;;;;;;1.75;1.00;;;;;22.30;49.95;100926.59;5018909;28;45741;-55
2022/11/01 03:06:55;;;;;;;;;2.00;2.00;;;;;22.31;49.95;100932.75;5020247;28;45332;-54
2022/11/01 03:09:21;;;;;;;;;2.50;1.00;;;;;22.28;49.83;100933.75;5018561;28;45454;-56
2022/11/01 03:12:06;;;;;;;;;1.50;1.00;;;;;22.30;49.69;100955.66;5022809;28;45456;-56
2022/11/01 03:14:54;;;;;;;;;3.00;3.00;;;;;22.30;49.76;100957.44;5025451;28;45379;-55
2022/11/01 03:17:37;;;;;;;;;1.00;1.00;;;;;22.30;49.94;100952.16;5021718;28;45229;-55
2022/11/01 03:20:02;;;;;;;;;3.00;1.00;;;;;22.30;49.65;100962.72;5019774;28;45302;-55
2022/11/01 03:22:37;;;;;;;;;0.00;0.00;;;;;22.30;49.62;100970.66;5019134;28;47601;-56
2022/11/01 03:25:38;;;;;;;;;1.00;1.00;;;;;22.29;49.63;100958.38;5019311;28;45492;-55
2022/11/01 03:27:59;;;;;;;;;1.00;1.00;;;;;22.29;49.29;100976.88;5019182;28;45513;-55
2022/11/01 03:30:25;;;;;;;;;0.00;0.00;;;;;22.28;49.51;100970.72;5019355;28;45209;-56
2022/11/01 03:32:57;;;;;;;;;3.00;1.00;;;;;22.27;49.68;100979.59;5016500;28;45385;-56
2022/11/01 03:35:27;;;;;;;;;1.50;1.00;;;;;22.28;49.50;100983.09;5018737;28;45375;-56
2022/11/01 03:37:59;;;;;;;;;1.00;1.00;;;;;22.27;49.46;100986.66;5019718;28;45336;-56
2022/11/01 03:40:27;;;;;;;;;2.00;1.00;;;;;22.27;49.52;100989.31;5018082;28;45316;-56
2022/11/01 03:42:58;;;;;;;;;1.00;0.50;;;;;22.27;49.30;100989.31;5019313;28;46900;-54
2022/11/01 03:45:24;;;;;;;;;1.00;1.00;;;;;22.26;49.14;100996.41;5019129;28;45641;-56
2022/11/01 03:47:50;;;;;;;;;2.50;0.50;;;;;22.26;49.26;100996.41;5019154;28;45190;-56
2022/11/01 03:50:21;;;;;;;;;1.00;1.00;;;;;22.26;49.41;101014.00;5030708;28;44850;-56
2022/11/01 03:52:47;;;;;;;;;1.75;1.75;;;;;22.24;49.26;101012.31;5029678;28;46294;-54
2022/11/01 03:55:17;;;;;;;;;0.75;0.00;;;;;22.24;49.19;101022.88;5025733;28;45322;-54
2022/11/01 03:57:56;;;;;;;;;1.25;1.00;;;;;22.26;48.99;101035.13;5019533;28;45227;-57
2022/11/01 04:00:30;;;;;;;;;0.25;0.25;;;;;22.23;49.33;101042.28;5026004;28;45323;-57
2022/11/01 04:02:57;;;;;;;;;2.00;1.25;;;;;22.21;48.77;101044.16;5022326;28;46261;-56
2022/11/01 04:05:24;;;;;;;;;2.75;0.50;;;;;22.20;49.03;101039.84;5022630;28;45453;-56
2022/11/01 04:07:50;;;;;;;;;1.00;1.00;;;;;22.23;48.90;101052.84;5026794;28;45219;-56
2022/11/01 04:10:17;;;;;;;;;1.00;1.00;;;;;22.23;48.99;101055.50;5028126;28;45526;-55
2022/11/01 04:12:47;;;;;;;;;1.50;1.50;;;;;22.24;48.89;101059.00;5029068;28;46739;-56
2022/11/01 04:20:59;;;;;;;;;0.25;0.25;;;;;22.20;48.59;101079.47;5024843;28;45162;-53
2022/11/01 04:23:25;;;;;;;;;1.00;1.00;;;;;22.20;49.09;101084.72;5025394;28;46531;-54
2022/11/01 04:25:50;;;;;;;;;1.50;1.00;;;;;22.19;48.94;101090.94;5020944;28;60550;-54
2022/11/01 04:28:15;;;;;;;;;0.50;0.50;;;;;22.20;49.03;101095.28;5032223;28;45312;-55
2022/11/01 04:30:42;;;;;;;;;2.00;1.00;;;;;22.18;49.01;101102.44;5036644;28;45292;-57
2022/11/01 04:33:08;;;;;;;;;0.00;0.00;;;;;22.20;48.95;101105.84;5033232;28;45223;-56
2022/11/01 04:35:36;;;;;;;;;1.00;1.00;;;;;22.20;48.67;101108.50;5019690;28;45347;-56
2022/11/01 04:38:01;;;;;;;;;1.00;1.00;;;;;22.19;48.88;101113.84;5019260;28;45182;-55
2022/11/01 04:40:26;;;;;;;;;0.00;0.00;;;;;22.19;48.72;101120.00;5017891;28;51580;-56
2022/11/01 04:42:54;;;;;;;;;0.75;0.75;;;;;22.19;48.86;101117.34;5018082;28;45263;-54
2022/11/01 04:45:20;;;;;;;;;1.00;1.00;;;;;22.17;48.45;101121.88;5018452;28;45686;-55
2022/11/01 04:47:52;;;;;;;;;2.25;0.50;;;;;22.18;48.60;101123.56;5017899;28;45430;-54
2022/11/01 04:50:20;;;;;;;;;2.00;1.00;;;;;22.18;48.83;101122.69;5018600;28;45554;-56
2022/11/01 04:52:47;;;;;;;;;1.00;1.00;;;;;22.19;48.90;101129.69;5017615;28;46605;-56
2022/11/01 04:55:12;;;;;;;;;1.75;0.25;;;;;22.16;48.79;101125.44;5018763;28;45743;-55
2022/11/01 04:57:42;;;;;;;;;3.50;1.00;;;;;22.17;48.72;101132.44;5018017;28;45464;-56
2022/11/01 05:00:12;;;;;;;;;1.00;1.00;;;;;22.17;48.74;101137.69;5020196;28;45457;-56
2022/11/01 05:02:38;;;;;;;;;2.00;1.00;;;;;22.17;48.64;101142.97;5023362;28;46261;-57
2022/11/01 05:05:08;;;;;;;;;1.00;0.75;;;;;22.17;48.69;101144.75;5018186;28;45771;-56
2022/11/01 05:07:34;;;;;;;;;2.50;1.00;;;;;22.17;48.68;101147.41;5022867;28;45439;-54
2022/11/01 05:10:00;;;;;;;;;0.25;0.25;;;;;22.16;48.74;101158.94;5022831;28;45299;-55
2022/11/01 05:12:26;;;;;;;;;3.00;1.50;;;;;22.14;48.65;101152.88;5016782;28;46952;-53
2022/11/01 05:14:51;;;;;;;;;3.00;1.00;;;;;22.15;48.62;101152.78;5018514;28;45323;-55
2022/11/01 05:17:16;;;;;;;;;0.50;0.50;;;;;22.15;48.56;101150.13;5017199;28;46990;-56
2022/11/01 05:19:41;;;;;;;;;2.50;0.75;;;;;22.15;48.38;101165.97;5017980;28;46091;-56
2022/11/01 05:22:07;;;;;;;;;1.00;1.00;;;;;22.13;48.38;101170.47;5016737;28;47213;-57
2022/11/01 05:24:32;;;;;;;;;1.75;0.25;;;;;22.13;48.49;101175.75;5017135;28;53259;-56
2022/11/01 05:26:59;;;;;;;;;1.00;1.00;;;;;22.13;48.54;101173.13;5017728;28;45708;-55
2022/11/01 05:29:24;;;;;;;;;1.00;1.00;;;;;22.11;48.47;101164.44;5017545;28;45368;-56
2022/11/01 05:31:50;;;;;;;;;0.00;0.00;;;;;22.13;48.68;101172.28;5016719;28;47859;-56
2022/11/01 05:34:15;;;;;;;;;2.00;0.75;;;;;22.12;48.54;101173.22;5016782;28;52791;-56
2022/11/01 05:36:40;;;;;;;;;0.00;0.00;;;;;22.09;48.53;101176.91;5017383;28;49846;-56
2022/11/01 05:39:06;;;;;;;;;1.00;1.00;;;;;22.08;48.54;101176.03;5017744;28;45233;-56
2022/11/01 05:41:31;;;;;;;;;0.00;0.00;;;;;22.09;48.43;101179.53;5017739;28;46167;-55
2022/11/01 05:43:56;;;;;;;;;0.00;0.00;;;;;22.09;48.42;101188.28;5019857;28;49163;-57
2022/11/01 05:46:22;;;;;;;;;1.00;1.00;;;;;22.10;48.47;101186.53;5024628;28;45237;-57
2022/11/01 05:48:47;;;;;;;;;1.00;1.00;;;;;22.09;48.53;101185.66;5023291;28;45223;-56
2022/11/01 05:51:12;;;;;;;;;1.00;1.00;;;;;22.09;48.47;101190.09;5021908;28;46654;-57
2022/11/01 05:53:38;;;;;;;;;1.00;0.50;;;;;22.09;48.39;101190.09;5036385;28;57528;-56
2022/11/01 05:56:03;;;;;;;;;0.00;0.00;;;;;22.08;48.23;101183.94;5040014;28;48500;-56
2022/11/01 05:58:28;;;;;;;;;0.00;0.00;;;;;22.08;48.11;101185.75;5040113;28;45424;-54
2022/11/01 06:00:58;;;;;;;;;1.00;1.00;;;;;22.06;48.34;101187.63;5043007;28;44981;-57
2022/11/01 06:03:24;;;;;;;;;2.00;1.00;;;;;22.03;48.13;101183.38;5030321;28;45182;-54
2022/11/01 06:05:49;;;;;;;;;0.50;0.50;;;;;22.04;48.33;101195.63;5026924;28;45237;-56
2022/11/01 06:08:14;;;;;;;;;0.50;0.50;;;;;22.02;48.23;101192.22;5025154;28;48909;-54
2022/11/01 06:10:40;;;;;;;;;4.50;1.00;;;;;22.04;47.99;101194.78;5025857;28;46350;-56
2022/11/01 06:13:05;;;;;;;;;1.00;0.25;;;;;22.02;47.94;101191.34;5024700;28;45248;-55
2022/11/01 06:15:31;;;;;;;;;2.00;0.25;;;;;22.03;48.19;101190.41;5019651;28;45380;-55
2022/11/01 06:17:57;;;;;;;;;4.50;0.25;;;;;22.00;48.09;101195.88;5020994;28;45308;-55
2022/11/01 06:20:23;;;;;;;;;1.75;0.75;;;;;22.03;48.06;101204.50;5020424;28;46128;-55
2022/11/01 06:22:49;;;;;;;;;1.00;1.00;;;;;22.03;48.14;101198.34;5025715;28;45356;-56
2022/11/01 06:25:14;;;;;;;;;0.25;0.25;;;;;22.02;48.14;101199.28;5023747;28;45245;-55
2022/11/01 06:27:39;;;;;;;;;1.00;0.00;;;;;22.00;48.20;101204.66;5024847;28;45282;-55
2022/11/01 06:30:05;;;;;;;;;0.00;0.00;;;;;22.02;48.24;101212.47;5023228;28;52613;-56
2022/11/01 06:32:31;;;;;;;;;3.00;0.25;;;;;22.01;48.01;101216.91;5021146;28;45833;-57
2022/11/01 06:34:56;;;;;;;;;1.00;1.00;;;;;22.01;48.07;101210.75;5020689;28;56024;-55
2022/11/01 06:37:22;;;;;;;;;1.00;1.00;;;;;22.00;47.98;101220.47;5021034;28;45544;-57
2022/11/01 06:39:47;;;;;;;;;2.00;0.75;;;;;22.00;48.11;101219.63;5019565;28;46326;-55
2022/11/01 06:42:12;;;;;;;;;1.50;0.00;;;;;22.01;48.19;101221.31;5021226;28;45419;-56
2022/11/01 06:44:40;;;;;;;;;0.25;0.25;;;;;22.01;47.87;101226.59;5022682;28;45403;-57
2022/11/01 06:47:05;;;;;;;;;0.00;0.00;;;;;22.00;48.02;101231.03;5040563;28;46892;-56
2022/11/01 06:49:31;;;;;;;;;0.50;0.25;;;;;22.01;48.18;101226.59;5036152;28;46168;-56
2022/11/01 06:51:56;;;;;;;;;2.00;0.00;;;;;22.00;47.88;101232.81;5041480;28;44713;-56
2022/11/01 06:54:22;;;;;;;;;1.00;1.00;;;;;22.00;47.96;101243.38;5039310;28;45341;-56
2022/11/01 06:56:47;;;;;;;;;0.25;0.00;;;;;21.99;47.88;101244.34;5032476;28;45673;-56
2022/11/01 06:59:15;;;;;;;;;1.00;0.00;;;;;21.99;48.09;101254.91;5030261;28;45819;-55
2022/11/01 07:01:40;;;;;;;;;0.75;0.75;;;;;21.99;47.97;101249.63;5029298;28;45430;-55
2022/11/01 07:04:05;;;;;;;;;1.75;0.25;;;;;21.96;47.82;101252.41;5026350;28;45359;-55
2022/11/01 07:06:31;;;;;;;;;1.00;1.00;;;;;21.96;47.88;101244.50;5023956;28;45403;-54
2022/11/01 07:08:58;;;;;;;;;0.50;0.00;;;;;21.97;48.06;101249.69;5021492;28;47403;-55
2022/11/01 07:11:23;;;;;;;;;0.00;0.00;;;;;21.96;47.98;101252.41;5021485;28;45329;-58
2022/11/01 07:13:49;;;;;;;;;0.00;0.00;;;;;21.98;47.83;101258.47;5020039;28;45244;-55
2022/11/01 07:16:14;;;;;;;;;0.50;0.00;;;;;21.96;47.89;101252.41;5019377;28;45554;-57
2022/11/01 07:18:40;;;;;;;;;1.00;1.00;;;;;21.97;47.89;101254.13;5020793;28;45415;-56
2022/11/01 07:21:05;;;;;;;;;1.00;1.00;;;;;21.98;47.80;101263.75;5020431;28;45335;-57
2022/11/01 07:23:30;;;;;;;;;1.00;1.00;;;;;21.97;47.82;101264.69;5020331;28;45168;-56
2022/11/01 07:25:56;;;;;;;;;0.50;0.50;;;;;21.96;48.10;101265.59;5021260;28;45471;-56
2022/11/01 07:28:21;;;;;;;;;1.50;0.00;;;;;21.97;47.90;101267.31;5025659;28;45274;-55
2022/11/01 07:30:48;;;;;;;;;1.75;0.00;;;;;21.96;47.76;101281.44;5021670;28;45273;-55
2022/11/01 07:33:13;;;;;;;;;0.75;0.75;;;;;21.96;47.85;101290.19;5022604;28;45339;-56
2022/11/01 07:35:39;;;;;;;;;0.00;0.00;;;;;21.96;47.70;101297.28;5019875;28;45505;-55
2022/11/01 07:38:04;;;;;;;;;0.25;0.25;;;;;21.96;47.51;101286.72;5020226;28;45328;-54
2022/11/01 07:40:29;;;;;;;;;1.75;0.00;;;;;21.96;47.75;101292.84;5033026;28;45286;-56
2022/11/01 07:42:59;;;;;;;;;1.75;0.25;;;;;21.96;47.71;101294.63;5028176;28;45237;-56
2022/11/01 07:45:26;;;;;;;;;2.00;0.00;;;;;21.96;47.73;101298.13;5031874;28;45237;-56
2022/11/01 07:47:52;;;;;;;;;0.50;0.00;;;;;21.96;47.58;101311.31;5019508;28;47199;-57
2022/11/01 07:50:18;;;;;;;;;0.50;0.50;;;;;21.96;47.64;101302.56;5018855;28;45162;-56
2022/11/01 07:52:44;;;;;;;;;0.00;0.00;;;;;21.96;47.57;101297.28;5018567;28;45508;-58
2022/11/01 07:55:09;;;;;;;;;0.75;0.75;;;;;21.96;47.58;101307.84;5020174;28;45604;-56
2022/11/01 07:57:39;;;;;;;;;0.75;0.75;;;;;21.94;47.50;101302.63;5023258;28;46273;-57
2022/11/01 08:00:06;;;;;;;;;2.00;0.00;;;;;21.95;47.50;101322.81;5018772;28;45597;-56
2022/11/01 08:02:31;;;;;;;;;0.00;0.00;;;;;21.93;47.42;101319.41;5019101;28;45306;-56
2022/11/01 08:04:56;;;;;;;;;0.00;0.00;;;;;21.93;47.46;101325.53;5018652;28;48457;-55
2022/11/01 08:07:22;;;;;;;;;2.25;1.00;;;;;21.92;47.50;101334.38;5017999;28;65815;-55
2022/11/01 08:09:48;;;;;;;;;1.00;1.00;;;;;21.92;46.91;101338.81;5019025;28;45308;-57
2022/11/01 08:12:13;;;;;;;;;3.50;1.25;;;;;21.91;47.31;101334.47;5016819;28;45330;-56
2022/11/01 08:14:39;;;;;;;;;1.00;1.00;;;;;21.91;47.32;101339.75;5020012;28;45619;-55
2022/11/01 08:17:04;;;;;;;;;3.50;0.00;;;;;21.90;47.26;101341.53;5025606;28;45345;-56
2022/11/01 08:19:29;;;;;;;;;1.00;1.00;;;;;21.88;47.03;101337.28;5021578;28;55254;-55
2022/11/01 08:21:58;;;;;;;;;1.00;0.50;;;;;21.87;47.29;101336.44;5034408;28;45302;-55
2022/11/01 08:24:24;;;;;;;;;0.50;0.00;;;;;21.86;47.20;101340.00;5036259;28;45520;-56
2022/11/01 08:26:51;;;;;;;;;0.25;0.25;;;;;21.85;46.85;101337.44;5031967;28;45335;-57
2022/11/01 08:29:16;;;;;;;;;3.50;1.00;;;;;21.84;47.08;101327.81;5019092;28;45241;-57
2022/11/01 08:31:42;;;;;;;;;0.50;0.50;;;;;21.86;47.03;101331.22;5019152;28;45332;-56
2022/11/01 08:34:07;;;;;;;;;3.00;0.25;;;;;21.86;47.08;101334.72;5018899;28;45461;-57
2022/11/01 08:36:33;;;;;;;;;3.00;0.00;;;;;21.85;46.98;101325.09;5018578;28;46372;-55
2022/11/01 08:38:59;;;;;;;;;1.00;1.00;;;;;21.84;46.98;101328.66;5022023;28;45425;-55
2022/11/01 08:41:27;;;;;;;;;4.75;1.00;;;;;21.83;46.93;101323.50;5024692;28;45423;-55
2022/11/01 08:43:52;;;;;;;;;1.00;1.00;;;;;21.82;46.58;101325.25;5024694;28;45632;-56
2022/11/01 08:46:18;;;;;;;;;2.00;1.00;;;;;21.81;46.73;101327.97;5022013;28;47216;-58
2022/11/01 08:48:46;;;;;;;;;1.00;1.00;;;;;21.83;46.76;101334.03;5020294;28;46470;-57
2022/11/01 08:51:11;;;;;;;;;0.00;0.00;;;;;21.82;46.91;101333.16;5025496;28;45446;-57
2022/11/01 08:53:36;;;;;;;;;1.00;1.00;;;;;21.82;46.59;101333.16;5022186;28;45373;-55
2022/11/01 08:56:02;;;;;;;;;2.00;0.00;;;;;21.82;46.50;101327.06;5022872;28;45462;-57
2022/11/01 08:58:27;;;;;;;;;2.00;1.00;;;;;21.82;46.50;101327.91;5018224;28;45233;-55
2022/11/01 09:00:52;;;;;;;;;3.75;1.00;;;;;21.82;46.51;101335.81;5021728;28;45350;-56
2022/11/01 09:03:18;;;;;;;;;1.00;0.75;;;;;21.80;46.41;101332.38;5024688;28;45580;-57
2022/11/01 09:05:43;;;;;;;;;1.00;1.00;;;;;21.79;46.55;101335.97;5024655;28;45484;-56
2022/11/01 09:08:08;;;;;;;;;3.00;2.00;;;;;21.80;46.44;101324.47;5024670;28;59308;-56
2022/11/01 09:10:33;;;;;;;;;0.00;0.00;;;;;21.79;46.31;101322.78;5022297;28;46901;-57
2022/11/01 09:12:59;;;;;;;;;2.00;1.00;;;;;21.81;46.39;101328.81;5018208;28;45450;-56
2022/11/01 09:15:25;;;;;;;;;0.25;0.25;;;;;21.81;46.45;101339.38;5015928;28;48077;-56
2022/11/01 09:17:51;;;;;;;;;1.00;1.00;;;;;21.82;46.38;101321.78;5023908;28;45414;-54
2022/11/01 09:20:17;;;;;;;;;1.00;1.00;;;;;21.82;46.21;101332.34;5035365;28;44785;-56
2022/11/01 09:22:42;;;;;;;;;1.00;0.00;;;;;21.82;46.13;101340.25;5031940;28;44837;-55
2022/11/01 09:25:08;;;;;;;;;1.25;1.00;;;;;21.79;46.16;101335.97;5023666;28;66337;-56
2022/11/01 09:27:33;;;;;;;;;3.75;1.50;;;;;21.82;45.89;101354.28;5025318;28;45371;-55
2022/11/01 09:29:59;;;;;;;;;1.00;1.00;;;;;21.83;45.78;101345.44;5028156;28;45237;-55
2022/11/01 09:32:27;;;;;;;;;0.00;0.00;;;;;21.85;45.72;101353.25;5028584;28;45525;-54
2022/11/01 09:34:53;;;;;;;;;1.00;1.00;;;;;21.86;45.63;101347.03;5025642;28;46296;-55
2022/11/01 09:37:18;;;;;;;;;1.00;1.00;;;;;21.84;45.76;101355.06;5020787;28;45384;-56
2022/11/01 09:39:44;;;;;;;;;3.00;1.00;;;;;21.84;45.55;101352.41;5024495;28;45532;-55
2022/11/01 09:42:23;;;;;;;;;5.50;1.00;;;;;21.85;45.64;101359.41;5023493;28;49879;-55
2022/11/01 09:44:52;;;;;;;;;1.00;1.00;;;;;21.84;45.23;101356.81;5020289;28;46253;-56
2022/11/01 09:47:21;;;;;;;;;1.25;1.25;;;;;21.83;45.30;101366.53;5019943;28;45280;-54
2022/11/01 09:49:56;;;;;;;;;3.00;1.25;;;;;21.81;45.24;101368.41;5020309;28;45383;-54
2022/11/01 09:52:23;;;;;;;;;2.75;1.25;;;;;21.83;45.46;101361.25;5025573;28;45634;-57
2022/11/01 09:54:50;;;;;;;;;1.75;1.00;;;;;21.80;45.06;101361.41;5032188;28;45737;-55
2022/11/01 09:57:33;;;;;;;;;3.25;1.75;;;;;21.83;45.26;101371.81;5020891;28;45657;-55
2022/11/01 10:00:04;;;;;;;;;0.25;0.00;;;;;21.80;44.78;101363.22;5021539;28;45490;-58
2022/11/01 10:02:50;;;;;;;;;0.50;0.50;;;;;21.80;44.91;101366.69;5021199;28;45304;-56
2022/11/01 10:05:53;;;;;;;;;1.75;1.00;;;;;21.78;44.88;101365.91;5021010;28;46225;-57
2022/11/01 10:08:22;;;;;;;;;2.00;1.00;;;;;21.78;44.75;101368.56;5027567;28;45453;-53
2022/11/01 10:11:25;;;;;;;;;2.75;1.00;;;;;21.78;45.13;101374.69;5028065;28;45315;-54
2022/11/01 10:14:15;;;;;;;;;3.00;1.00;;;;;21.75;45.13;101368.75;5022046;28;45854;-55
2022/11/01 10:16:53;;;;;;;;;3.75;0.75;;;;;21.77;44.89;101370.34;5021805;28;46333;-55
2022/11/01 10:19:22;;;;;;;;;2.50;0.00;;;;;21.77;45.03;101367.72;5021284;28;45434;-52
2022/11/01 10:21:48;;;;;;;;;0.00;0.00;;;;;21.77;44.91;101361.59;5020476;28;45491;-54
2022/11/01 10:24:28;;;;;;;;;3.25;1.00;;;;;21.78;44.99;101373.84;5022422;28;45240;-56
2022/11/01 10:27:22;;;;;;;;;1.25;1.00;;;;;21.79;44.87;101375.53;5024194;28;46180;-54
2022/11/01 10:29:58;;;;;;;;;0.25;0.00;;;;;21.78;44.94;101372.06;5029548;28;45296;-57
2022/11/01 10:32:27;;;;;;;;;2.75;1.75;;;;;21.80;45.18;101385.16;5038793;28;44630;-57
2022/11/01 10:34:58;;;;;;;;;3.00;1.50;;;;;21.81;45.01;101378.97;5039134;28;45412;-55
2022/11/01 10:37:28;;;;;;;;;3.75;0.75;;;;;21.77;44.69;101370.34;5033365;28;46208;-57
2022/11/01 10:40:22;;;;;;;;;0.25;0.25;;;;;21.80;44.59;101373.78;5030842;28;45315;-55
2022/11/01 10:42:48;;;;;;;;;2.50;2.00;;;;;21.79;44.42;101372.91;5025950;28;45387;-56
2022/11/01 10:45:17;;;;;;;;;1.00;1.00;;;;;21.78;44.57;101376.47;5024258;28;45253;-56
2022/11/01 10:47:45;;;;;;;;;2.75;1.50;;;;;21.74;44.49;101367.88;5027699;28;47075;-54
2022/11/01 10:50:10;;;;;;;;;5.00;2.00;;;;;21.74;44.50;101361.75;5022566;28;45399;-56
2022/11/01 10:52:59;;;;;;;;;3.75;1.00;;;;;21.76;44.95;101349.34;5020108;28;45382;-56
2022/11/01 10:55:45;;;;;;;;;3.25;2.00;;;;;21.74;45.22;101346.75;5020304;28;45307;-55
2022/11/01 10:58:23;;;;;;;;;0.25;0.25;;;;;21.78;45.48;101360.63;5020188;28;46111;-55
2022/11/01 11:00:50;;;;;;;;;4.75;3.75;;;;;21.81;45.70;101352.56;5018642;28;45420;-56
2022/11/01 11:03:29;;;;;;;;;53.00;41.00;;;;;21.84;46.02;101359.47;5021185;28;45400;-57
2022/11/01 11:06:03;;;;;;;;;80.00;73.50;;;;;21.85;46.36;101340.94;5019897;28;45427;-57
2022/11/01 11:08:30;;;;;;;;;106.25;100.00;;;;;21.87;46.51;101349.63;5027475;28;46282;-58
2022/11/01 11:11:01;;;;;;;;;125.50;118.00;;;;;21.90;46.54;101354.72;5023511;28;45320;-57
2022/11/01 11:13:28;;;;;;;;;122.50;112.00;;;;;21.90;46.92;101354.72;5019967;28;45378;-57
2022/11/01 11:16:05;;;;;;;;;106.25;96.75;;;;;21.94;47.03;101360.69;5034776;28;45809;-57
2022/11/01 11:18:37;;;;;;;;;95.25;89.75;;;;;21.96;46.76;101357.97;5043408;28;46548;-59
2022/11/01 11:21:09;;;;;;;;;95.50;90.00;;;;;21.97;46.87;101354.41;5036804;28;45856;-57
2022/11/01 11:23:43;;;;;;;;;92.00;83.00;;;;;21.97;46.93;101347.31;5042654;28;45447;-57
2022/11/01 11:26:15;;;;;;;;;90.00;80.25;;;;;21.98;46.79;101353.47;5042746;28;45553;-58
2022/11/01 11:28:45;;;;;;;;;88.75;82.00;;;;;21.96;47.04;101355.34;5039936;28;46430;-57
2022/11/01 11:31:12;;;;;;;;;82.75;75.75;;;;;21.96;46.89;101350.06;5041738;28;45499;-57
2022/11/01 11:33:38;;;;;;;;;77.75;66.25;;;;;21.97;46.83;101338.56;5056063;28;45493;-58
2022/11/01 11:36:05;;;;;;;;;73.75;60.00;;;;;22.00;46.81;101354.22;5040962;28;45310;-55